createdAt,value
2017-11-28T00:00:14.841Z,7.71
2017-11-28T00:01:14.870Z,7.85
2017-11-28T00:02:14.899Z,7.87
2017-11-28T00:03:14.930Z,7.92
2017-11-28T00:04:14.957Z,7.79
2017-11-28T00:05:14.984Z,7.72
2017-11-28T00:06:15.015Z,7.68
2017-11-28T00:07:15.044Z,7.83
2017-11-28T00:08:15.072Z,7.71
2017-11-28T00:09:15.100Z,7.85
2017-11-28T00:10:15.130Z,7.74
2017-11-28T00:11:15.159Z,7.60
2017-11-28T00:12:15.192Z,7.85
2017-11-28T00:13:15.216Z,7.90
2017-11-28T00:14:15.252Z,7.82
2017-11-28T00:15:15.274Z,7.80
2017-11-28T00:16:15.302Z,7.90
2017-11-28T00:17:15.331Z,7.82
2017-11-28T00:18:15.360Z,7.92
2017-11-28T00:19:15.390Z,7.93
2017-11-28T00:20:15.418Z,7.89
2017-11-28T00:21:15.447Z,7.89
2017-11-28T00:22:15.476Z,7.89
2017-11-28T00:23:15.503Z,7.90
2017-11-28T00:24:15.533Z,7.87
2017-11-28T00:25:15.562Z,7.87
2017-11-28T00:26:15.592Z,7.87
2017-11-28T00:27:15.622Z,7.90
2017-11-28T00:28:15.649Z,7.86
2017-11-28T00:29:15.677Z,7.82
2017-11-28T00:30:15.707Z,7.75
2017-11-28T00:31:15.735Z,7.87
2017-11-28T00:32:15.764Z,7.98
2017-11-28T00:33:15.793Z,7.98
2017-11-28T00:34:15.843Z,7.98
2017-11-28T00:35:15.853Z,7.97
2017-11-28T00:36:15.880Z,8.05
2017-11-28T00:37:15.909Z,8.02
2017-11-28T00:38:15.941Z,8.10
2017-11-28T00:39:15.968Z,8.10
2017-11-28T00:40:15.995Z,8.05
2017-11-28T00:41:16.031Z,8.08
2017-11-28T00:42:16.052Z,8.12
2017-11-28T00:43:16.083Z,8.12
2017-11-28T00:44:16.111Z,8.20
2017-11-28T00:45:16.140Z,8.08
2017-11-28T00:46:16.169Z,8.11
2017-11-28T00:47:16.199Z,8.11
2017-11-28T00:48:16.227Z,7.97
2017-11-28T00:49:16.255Z,8.00
2017-11-28T00:50:16.285Z,8.12
2017-11-28T00:51:16.313Z,7.98
2017-11-28T00:52:16.341Z,8.04
2017-11-28T00:53:16.371Z,7.93
2017-11-28T00:54:16.400Z,7.98
2017-11-28T00:55:16.430Z,8.05
2017-11-28T00:56:16.457Z,8.00
2017-11-28T00:57:16.488Z,7.98
2017-11-28T00:58:16.517Z,7.97
2017-11-28T00:59:16.545Z,7.97
2017-11-28T01:00:16.573Z,8.05
2017-11-28T01:01:16.602Z,8.00
2017-11-28T01:02:16.631Z,7.97
2017-11-28T01:03:16.662Z,8.07
2017-11-28T01:04:16.689Z,8.00
2017-11-28T01:05:16.719Z,7.97
2017-11-28T01:06:16.748Z,7.95
2017-11-28T01:07:16.776Z,7.97
2017-11-28T01:08:16.808Z,8.07
2017-11-28T01:09:16.834Z,8.04
2017-11-28T01:10:16.864Z,7.95
2017-11-28T01:11:16.892Z,8.01
2017-11-28T01:12:16.920Z,7.95
2017-11-28T01:13:16.950Z,7.95
2017-11-28T01:14:16.979Z,8.00
2017-11-28T01:15:17.009Z,8.04
2017-11-28T01:16:17.037Z,7.98
2017-11-28T01:17:17.066Z,8.08
2017-11-28T01:18:17.094Z,8.12
2017-11-28T01:19:17.127Z,8.11
2017-11-28T01:20:17.152Z,8.12
2017-11-28T01:21:17.181Z,8.19
2017-11-28T01:22:17.211Z,8.23
2017-11-28T01:23:17.241Z,8.22
2017-11-28T01:24:17.268Z,8.20
2017-11-28T01:25:17.298Z,8.20
2017-11-28T01:26:17.326Z,8.16
2017-11-28T01:27:17.356Z,8.07
2017-11-28T01:28:17.385Z,8.04
2017-11-28T01:29:17.413Z,8.12
2017-11-28T01:30:17.444Z,8.08
2017-11-28T01:31:17.472Z,8.05
2017-11-28T01:32:17.500Z,8.07
2017-11-28T01:33:17.529Z,8.08
2017-11-28T01:34:17.558Z,8.11
2017-11-28T01:35:17.588Z,8.18
2017-11-28T01:36:17.616Z,8.18
2017-11-28T01:37:17.646Z,8.26
2017-11-28T01:38:17.677Z,8.22
2017-11-28T01:39:17.702Z,8.22
2017-11-28T01:40:17.732Z,8.23
2017-11-28T01:41:17.760Z,8.12
2017-11-28T01:42:17.790Z,8.05
2017-11-28T01:43:17.818Z,8.01
2017-11-28T01:44:17.849Z,7.95
2017-11-28T01:45:17.881Z,7.90
2017-11-28T01:46:17.906Z,7.89
2017-11-28T01:47:17.937Z,7.93
2017-11-28T01:48:17.965Z,8.02
2017-11-28T01:49:17.993Z,7.98
2017-11-28T01:50:18.023Z,7.95
2017-11-28T01:51:18.053Z,7.98
2017-11-28T01:52:18.082Z,7.98
2017-11-28T01:53:18.111Z,8.10
2017-11-28T01:54:18.140Z,8.07
2017-11-28T01:55:18.170Z,8.12
2017-11-28T01:56:18.198Z,8.12
2017-11-28T01:57:18.227Z,8.18
2017-11-28T01:58:18.256Z,8.18
2017-11-28T01:59:18.287Z,8.20
2017-11-28T02:00:18.314Z,8.28
2017-11-28T02:01:18.343Z,8.22
2017-11-28T02:02:18.374Z,8.12
2017-11-28T02:03:18.401Z,8.25
2017-11-28T02:04:18.430Z,8.19
2017-11-28T02:05:18.461Z,8.22
2017-11-28T02:06:18.489Z,8.22
2017-11-28T02:07:18.518Z,8.33
2017-11-28T02:08:18.547Z,8.25
2017-11-28T02:09:18.584Z,8.19
2017-11-28T02:10:18.605Z,8.16
2017-11-28T02:11:18.634Z,8.18
2017-11-28T02:12:18.664Z,8.16
2017-11-28T02:13:18.693Z,8.16
2017-11-28T02:14:18.722Z,8.16
2017-11-28T02:15:18.752Z,8.19
2017-11-28T02:16:18.780Z,8.22
2017-11-28T02:17:18.808Z,8.30
2017-11-28T02:18:18.836Z,8.18
2017-11-28T02:19:18.867Z,8.19
2017-11-28T02:20:18.895Z,8.23
2017-11-28T02:21:18.924Z,8.20
2017-11-28T02:22:18.959Z,8.07
2017-11-28T02:23:18.983Z,8.19
2017-11-28T02:24:19.023Z,8.30
2017-11-28T02:25:19.041Z,8.44
2017-11-28T02:26:19.071Z,8.41
2017-11-28T02:27:19.100Z,8.43
2017-11-28T02:28:19.128Z,8.36
2017-11-28T02:29:19.158Z,8.33
2017-11-28T02:30:19.188Z,8.20
2017-11-28T02:31:19.218Z,8.07
2017-11-28T02:32:19.253Z,8.05
2017-11-28T02:33:19.274Z,8.12
2017-11-28T02:34:19.303Z,8.07
2017-11-28T02:35:19.333Z,8.10
2017-11-28T02:36:19.361Z,8.12
2017-11-28T02:37:19.389Z,8.12
2017-11-28T02:38:19.420Z,8.25
2017-11-28T02:39:19.447Z,8.18
2017-11-28T02:40:19.479Z,8.19
2017-11-28T02:41:19.506Z,8.12
2017-11-28T02:42:19.536Z,8.18
2017-11-28T02:43:19.565Z,8.20
2017-11-28T02:44:19.593Z,8.20
2017-11-28T02:45:19.623Z,8.18
2017-11-28T02:46:19.651Z,8.18
2017-11-28T02:47:19.680Z,8.16
2017-11-28T02:48:19.708Z,8.23
2017-11-28T02:49:19.741Z,8.15
2017-11-28T02:50:19.769Z,8.25
2017-11-28T02:51:19.796Z,8.22
2017-11-28T02:52:19.826Z,8.20
2017-11-28T02:53:19.854Z,8.15
2017-11-28T02:54:19.884Z,8.07
2017-11-28T02:55:19.934Z,8.12
2017-11-28T02:56:19.941Z,8.23
2017-11-28T02:57:19.972Z,8.20
2017-11-28T02:58:20.007Z,8.11
2017-11-28T02:59:20.030Z,8.12
2017-11-28T03:00:20.058Z,8.16
2017-11-28T03:01:20.087Z,8.05
2017-11-28T03:02:20.117Z,7.97
2017-11-28T03:03:20.144Z,8.10
2017-11-28T03:04:20.175Z,8.08
2017-11-28T03:05:20.204Z,8.11
2017-11-28T03:06:20.243Z,8.07
2017-11-28T03:07:20.264Z,8.05
2017-11-28T03:08:20.290Z,8.01
2017-11-28T03:09:20.321Z,8.05
2017-11-28T03:10:20.349Z,8.00
2017-11-28T03:11:20.379Z,8.02
2017-11-28T03:12:20.406Z,8.01
2017-11-28T03:13:20.435Z,7.98
2017-11-28T03:14:20.466Z,7.97
2017-11-28T03:15:20.497Z,7.98
2017-11-28T03:16:20.524Z,8.01
2017-11-28T03:17:20.553Z,8.00
2017-11-28T03:18:20.581Z,7.97
2017-11-28T03:19:20.611Z,8.07
2017-11-28T03:20:20.649Z,8.02
2017-11-28T03:21:20.670Z,8.11
2017-11-28T03:22:20.699Z,8.02
2017-11-28T03:23:20.728Z,7.98
2017-11-28T03:24:20.758Z,8.04
2017-11-28T03:25:20.785Z,8.16
2017-11-28T03:26:20.816Z,8.18
2017-11-28T03:27:20.844Z,8.18
2017-11-28T03:28:20.872Z,8.19
2017-11-28T03:29:20.902Z,8.22
2017-11-28T03:30:20.935Z,8.16
2017-11-28T03:31:20.968Z,8.19
2017-11-28T03:32:20.989Z,8.04
2017-11-28T03:33:21.018Z,8.11
2017-11-28T03:34:21.048Z,8.00
2017-11-28T03:35:21.076Z,7.95
2017-11-28T03:36:21.105Z,8.02
2017-11-28T03:37:21.133Z,8.20
2017-11-28T03:38:21.163Z,8.19
2017-11-28T03:39:21.200Z,8.18
2017-11-28T03:40:21.220Z,8.08
2017-11-28T03:41:21.250Z,8.08
2017-11-28T03:42:21.280Z,8.07
2017-11-28T03:43:21.331Z,8.19
2017-11-28T03:44:21.336Z,8.19
2017-11-28T03:45:21.372Z,8.07
2017-11-28T03:46:21.397Z,8.12
2017-11-28T03:47:21.424Z,8.05
2017-11-28T03:48:21.453Z,8.07
2017-11-28T03:49:21.488Z,8.04
2017-11-28T03:50:21.511Z,8.18
2017-11-28T03:51:21.541Z,8.10
2017-11-28T03:52:21.568Z,8.10
2017-11-28T03:53:21.597Z,8.16
2017-11-28T03:54:21.627Z,8.25
2017-11-28T03:55:21.666Z,8.19
2017-11-28T03:56:21.684Z,8.19
2017-11-28T03:57:21.714Z,8.19
2017-11-28T03:58:21.744Z,8.20
2017-11-28T03:59:21.773Z,8.18
2017-11-28T04:00:21.801Z,8.15
2017-11-28T04:01:21.830Z,8.10
2017-11-28T04:02:21.859Z,8.05
2017-11-28T04:03:21.889Z,8.07
2017-11-28T04:04:21.922Z,8.20
2017-11-28T04:05:21.946Z,8.11
2017-11-28T04:06:21.977Z,8.12
2017-11-28T04:07:22.005Z,8.20
2017-11-28T04:08:22.034Z,8.19
2017-11-28T04:09:22.062Z,8.10
2017-11-28T04:10:22.091Z,8.12
2017-11-28T04:11:22.121Z,8.05
2017-11-28T04:12:22.148Z,8.04
2017-11-28T04:13:22.179Z,8.10
2017-11-28T04:14:22.207Z,8.15
2017-11-28T04:15:22.237Z,8.16
2017-11-28T04:16:22.266Z,8.19
2017-11-28T04:17:22.295Z,8.19
2017-11-28T04:18:22.325Z,8.16
2017-11-28T04:19:22.353Z,8.19
2017-11-28T04:20:22.384Z,8.23
2017-11-28T04:21:22.410Z,8.12
2017-11-28T04:22:22.440Z,8.23
2017-11-28T04:23:22.468Z,8.18
2017-11-28T04:24:22.498Z,8.19
2017-11-28T04:25:22.526Z,8.10
2017-11-28T04:26:22.556Z,8.08
2017-11-28T04:27:22.590Z,8.12
2017-11-28T04:28:22.614Z,8.07
2017-11-28T04:29:22.644Z,8.12
2017-11-28T04:30:22.672Z,8.04
2017-11-28T04:31:22.707Z,8.22
2017-11-28T04:32:22.730Z,8.23
2017-11-28T04:33:22.760Z,8.22
2017-11-28T04:34:22.788Z,8.20
2017-11-28T04:35:22.818Z,8.20
2017-11-28T04:36:22.852Z,8.18
2017-11-28T04:37:22.875Z,8.26
2017-11-28T04:38:22.904Z,8.16
2017-11-28T04:39:22.933Z,8.22
2017-11-28T04:40:22.961Z,8.18
2017-11-28T04:41:22.998Z,8.22
2017-11-28T04:42:23.020Z,8.12
2017-11-28T04:43:23.050Z,8.08
2017-11-28T04:44:23.091Z,8.05
2017-11-28T04:45:23.107Z,8.07
2017-11-28T04:46:23.135Z,8.10
2017-11-28T04:47:23.166Z,8.02
2017-11-28T04:48:23.193Z,8.05
2017-11-28T04:49:23.222Z,8.22
2017-11-28T04:50:23.250Z,8.15
2017-11-28T04:51:23.289Z,8.18
2017-11-28T04:52:23.309Z,8.16
2017-11-28T04:53:23.339Z,8.05
2017-11-28T04:54:23.368Z,7.93
2017-11-28T04:55:23.395Z,8.05
2017-11-28T04:56:23.425Z,8.02
2017-11-28T04:57:23.454Z,7.98
2017-11-28T04:58:23.482Z,8.04
2017-11-28T04:59:23.513Z,8.02
2017-11-28T05:00:23.541Z,8.04
2017-11-28T05:01:23.570Z,8.04
2017-11-28T05:02:23.600Z,8.04
2017-11-28T05:03:23.629Z,8.07
2017-11-28T05:04:23.657Z,8.08
2017-11-28T05:05:23.686Z,8.11
2017-11-28T05:06:23.715Z,7.98
2017-11-28T05:07:23.744Z,7.95
2017-11-28T05:08:23.772Z,8.01
2017-11-28T05:09:23.811Z,8.02
2017-11-28T05:10:23.831Z,8.04
2017-11-28T05:11:23.860Z,7.93
2017-11-28T05:12:23.889Z,8.08
2017-11-28T05:13:23.923Z,8.02
2017-11-28T05:14:23.947Z,8.12
2017-11-28T05:15:23.975Z,8.02
2017-11-28T05:16:24.006Z,8.02
2017-11-28T05:17:24.033Z,8.01
2017-11-28T05:18:24.068Z,7.98
2017-11-28T05:19:24.091Z,7.97
2017-11-28T05:20:24.123Z,7.97
2017-11-28T05:21:24.148Z,7.92
2017-11-28T05:22:24.177Z,7.92
2017-11-28T05:23:24.209Z,8.00
2017-11-28T05:24:24.235Z,8.00
2017-11-28T05:25:24.266Z,7.92
2017-11-28T05:26:24.299Z,8.00
2017-11-28T05:27:24.323Z,8.00
2017-11-28T05:28:24.350Z,8.01
2017-11-28T05:29:24.382Z,7.93
2017-11-28T05:30:24.411Z,7.90
2017-11-28T05:31:24.438Z,7.93
2017-11-28T05:32:24.467Z,7.97
2017-11-28T05:33:24.497Z,8.01
2017-11-28T05:34:24.525Z,8.00
2017-11-28T05:35:24.555Z,8.18
2017-11-28T05:36:24.584Z,8.08
2017-11-28T05:37:24.614Z,8.16
2017-11-28T05:38:24.653Z,8.07
2017-11-28T05:39:24.671Z,8.04
2017-11-28T05:40:24.700Z,7.97
2017-11-28T05:41:24.729Z,7.89
2017-11-28T05:42:24.759Z,7.87
2017-11-28T05:43:24.787Z,7.92
2017-11-28T05:44:24.816Z,7.86
2017-11-28T05:45:24.844Z,7.85
2017-11-28T05:46:24.874Z,7.95
2017-11-28T05:47:24.903Z,7.97
2017-11-28T05:48:24.932Z,7.93
2017-11-28T05:49:24.960Z,8.01
2017-11-28T05:50:24.990Z,7.95
2017-11-28T05:51:25.020Z,8.01
2017-11-28T05:52:25.048Z,8.01
2017-11-28T05:53:25.076Z,8.10
2017-11-28T05:54:25.105Z,8.04
2017-11-28T05:55:25.137Z,8.10
2017-11-28T05:56:25.164Z,8.05
2017-11-28T05:57:25.193Z,8.02
2017-11-28T05:58:25.221Z,8.01
2017-11-28T05:59:25.251Z,8.01
2017-11-28T06:00:25.283Z,7.97
2017-11-28T06:01:25.309Z,7.97
2017-11-28T06:02:25.337Z,8.02
2017-11-28T06:03:25.369Z,7.98
2017-11-28T06:04:25.395Z,7.98
2017-11-28T06:05:25.424Z,8.00
2017-11-28T06:06:25.457Z,7.95
2017-11-28T06:07:25.491Z,8.04
2017-11-28T06:08:25.512Z,8.00
2017-11-28T06:09:25.540Z,7.97
2017-11-28T06:10:25.570Z,7.95
2017-11-28T06:11:25.598Z,8.07
2017-11-28T06:12:25.627Z,8.02
2017-11-28T06:13:25.662Z,8.08
2017-11-28T06:14:25.687Z,8.02
2017-11-28T06:15:25.715Z,8.02
2017-11-28T06:16:25.744Z,8.04
2017-11-28T06:17:25.775Z,7.97
2017-11-28T06:18:25.800Z,7.87
2017-11-28T06:19:25.829Z,8.00
2017-11-28T06:20:25.859Z,7.97
2017-11-28T06:21:25.887Z,7.95
2017-11-28T06:22:25.916Z,7.89
2017-11-28T06:23:25.951Z,7.93
2017-11-28T06:24:25.976Z,8.01
2017-11-28T06:25:26.004Z,8.01
2017-11-28T06:26:26.033Z,7.93
2017-11-28T06:27:26.061Z,7.93
2017-11-28T06:28:26.091Z,7.93
2017-11-28T06:29:26.124Z,7.98
2017-11-28T06:30:26.147Z,7.98
2017-11-28T06:31:26.178Z,8.02
2017-11-28T06:32:26.206Z,8.04
2017-11-28T06:33:26.240Z,8.02
2017-11-28T06:34:26.264Z,7.86
2017-11-28T06:35:26.293Z,8.02
2017-11-28T06:36:26.321Z,8.00
2017-11-28T06:37:26.350Z,8.01
2017-11-28T06:38:26.380Z,8.02
2017-11-28T06:39:26.413Z,8.00
2017-11-28T06:40:26.438Z,7.98
2017-11-28T06:41:26.467Z,8.01
2017-11-28T06:42:26.497Z,8.02
2017-11-28T06:43:26.527Z,7.97
2017-11-28T06:44:26.553Z,7.97
2017-11-28T06:45:26.581Z,8.01
2017-11-28T06:46:26.611Z,8.05
2017-11-28T06:47:26.646Z,8.04
2017-11-28T06:48:26.669Z,8.00
2017-11-28T06:49:26.698Z,7.97
2017-11-28T06:50:26.727Z,8.10
2017-11-28T06:51:26.758Z,8.10
2017-11-28T06:52:26.786Z,8.12
2017-11-28T06:53:26.813Z,8.16
2017-11-28T06:54:26.843Z,8.16
2017-11-28T06:55:26.873Z,8.20
2017-11-28T06:56:26.899Z,8.18
2017-11-28T06:57:26.929Z,8.10
2017-11-28T06:58:26.960Z,8.05
2017-11-28T06:59:26.989Z,8.00
2017-11-28T07:00:27.021Z,7.93
2017-11-28T07:01:27.045Z,8.00
2017-11-28T07:02:27.075Z,7.98
2017-11-28T07:03:27.103Z,7.89
2017-11-28T07:04:27.132Z,7.89
2017-11-28T07:05:27.161Z,7.83
2017-11-28T07:06:27.190Z,7.90
2017-11-28T07:07:27.219Z,7.83
2017-11-28T07:08:27.248Z,7.79
2017-11-28T07:09:27.283Z,7.86
2017-11-28T07:10:27.334Z,7.89
2017-11-28T07:11:27.337Z,7.87
2017-11-28T07:12:27.364Z,7.82
2017-11-28T07:13:27.392Z,7.86
2017-11-28T07:14:27.421Z,7.80
2017-11-28T07:15:27.451Z,7.90
2017-11-28T07:16:27.478Z,7.77
2017-11-28T07:17:27.508Z,7.69
2017-11-28T07:18:27.538Z,7.77
2017-11-28T07:19:27.566Z,7.75
2017-11-28T07:20:27.595Z,7.68
2017-11-28T07:21:27.622Z,7.60
2017-11-28T07:22:27.652Z,7.61
2017-11-28T07:23:27.680Z,7.60
2017-11-28T07:24:27.716Z,7.53
2017-11-28T07:25:27.757Z,7.43
2017-11-28T07:26:27.767Z,7.60
2017-11-28T07:27:27.796Z,7.63
2017-11-28T07:28:27.832Z,7.55
2017-11-28T07:29:27.853Z,7.61
2017-11-28T07:30:27.883Z,7.64
2017-11-28T07:31:27.911Z,7.60
2017-11-28T07:32:27.938Z,7.67
2017-11-28T07:33:27.967Z,7.63
2017-11-28T07:34:27.996Z,7.64
2017-11-28T07:35:28.029Z,7.72
2017-11-28T07:36:28.054Z,7.58
2017-11-28T07:37:28.087Z,7.53
2017-11-28T07:38:28.110Z,7.48
2017-11-28T07:39:28.140Z,7.45
2017-11-28T07:40:28.168Z,7.46
2017-11-28T07:41:28.198Z,7.57
2017-11-28T07:42:28.227Z,7.63
2017-11-28T07:43:28.255Z,7.61
2017-11-28T07:44:28.283Z,7.80
2017-11-28T07:45:28.312Z,7.75
2017-11-28T07:46:28.340Z,7.80
2017-11-28T07:47:28.369Z,7.74
2017-11-28T07:48:28.398Z,7.64
2017-11-28T07:49:28.427Z,7.64
2017-11-28T07:50:28.456Z,7.64
2017-11-28T07:51:28.485Z,7.57
2017-11-28T07:52:28.513Z,7.64
2017-11-28T07:53:28.542Z,7.46
2017-11-28T07:54:28.568Z,7.60
2017-11-28T07:55:28.601Z,7.52
2017-11-28T07:56:28.626Z,7.52
2017-11-28T07:57:28.656Z,7.50
2017-11-28T07:58:28.685Z,7.48
2017-11-28T07:59:28.712Z,7.57
2017-11-28T08:00:28.741Z,7.49
2017-11-28T08:01:28.770Z,7.50
2017-11-28T08:02:28.801Z,7.61
2017-11-28T08:03:28.829Z,7.43
2017-11-28T08:04:28.855Z,7.46
2017-11-28T08:05:28.884Z,7.57
2017-11-28T08:06:28.912Z,7.46
2017-11-28T08:07:28.941Z,7.45
2017-11-28T08:08:28.970Z,7.50
2017-11-28T08:09:28.999Z,7.49
2017-11-28T08:10:29.027Z,7.46
2017-11-28T08:11:29.056Z,7.50
2017-11-28T08:12:29.084Z,7.49
2017-11-28T08:13:29.113Z,7.49
2017-11-28T08:14:29.144Z,7.39
2017-11-28T08:15:29.176Z,7.40
2017-11-28T08:16:29.199Z,7.48
2017-11-28T08:17:29.232Z,7.46
2017-11-28T08:18:29.259Z,7.43
2017-11-28T08:19:29.287Z,7.45
2017-11-28T08:20:29.314Z,7.35
2017-11-28T08:21:29.342Z,7.27
2017-11-28T08:22:29.373Z,7.28
2017-11-28T08:23:29.401Z,7.28
2017-11-28T08:24:29.429Z,7.28
2017-11-28T08:25:29.465Z,7.21
2017-11-28T08:26:29.486Z,7.28
2017-11-28T08:27:29.515Z,7.15
2017-11-28T08:28:29.543Z,7.28
2017-11-28T08:29:29.573Z,7.25
2017-11-28T08:30:29.600Z,7.32
2017-11-28T08:31:29.630Z,7.21
2017-11-28T08:32:29.656Z,7.20
2017-11-28T08:33:29.687Z,7.16
2017-11-28T08:34:29.715Z,7.27
2017-11-28T08:35:29.746Z,7.27
2017-11-28T08:36:29.777Z,7.30
2017-11-28T08:37:29.809Z,7.28
2017-11-28T08:38:29.830Z,7.21
2017-11-28T08:39:29.862Z,7.28
2017-11-28T08:40:29.887Z,7.31
2017-11-28T08:41:29.917Z,7.28
2017-11-28T08:42:29.954Z,7.32
2017-11-28T08:43:29.974Z,7.32
2017-11-28T08:44:30.000Z,7.32
2017-11-28T08:45:30.031Z,7.32
2017-11-28T08:46:30.061Z,7.30
2017-11-28T08:47:30.090Z,7.32
2017-11-28T08:48:30.116Z,7.32
2017-11-28T08:49:30.146Z,7.30
2017-11-28T08:50:30.175Z,7.37
2017-11-28T08:51:30.203Z,7.35
2017-11-28T08:52:30.245Z,7.37
2017-11-28T08:53:30.262Z,7.40
2017-11-28T08:54:30.289Z,7.35
2017-11-28T08:55:30.318Z,7.37
2017-11-28T08:56:30.374Z,7.35
2017-11-28T08:57:30.375Z,7.32
2017-11-28T08:58:30.404Z,7.32
2017-11-28T08:59:30.431Z,7.31
2017-11-28T09:00:30.460Z,7.32
2017-11-28T09:01:30.488Z,7.39
2017-11-28T09:02:30.518Z,7.34
2017-11-28T09:03:30.548Z,7.40
2017-11-28T09:04:30.574Z,7.42
2017-11-28T09:05:30.609Z,7.46
2017-11-28T09:06:30.632Z,7.49
2017-11-28T09:07:30.661Z,7.46
2017-11-28T09:08:30.689Z,7.52
2017-11-28T09:09:30.718Z,7.46
2017-11-28T09:10:30.746Z,7.43
2017-11-28T09:11:30.775Z,7.46
2017-11-28T09:12:30.802Z,7.46
2017-11-28T09:13:30.832Z,7.46
2017-11-28T09:14:30.862Z,7.37
2017-11-28T09:15:30.890Z,7.35
2017-11-28T09:16:30.922Z,7.31
2017-11-28T09:17:30.946Z,7.30
2017-11-28T09:18:30.976Z,7.24
2017-11-28T09:19:31.004Z,7.27
2017-11-28T09:20:31.032Z,7.39
2017-11-28T09:21:31.062Z,7.45
2017-11-28T09:22:31.092Z,7.48
2017-11-28T09:23:31.118Z,7.45
2017-11-28T09:24:31.152Z,7.45
2017-11-28T09:25:31.176Z,7.49
2017-11-28T09:26:31.205Z,7.55
2017-11-28T09:27:31.233Z,7.46
2017-11-28T09:28:31.260Z,7.58
2017-11-28T09:29:31.313Z,7.42
2017-11-28T09:30:31.318Z,7.52
2017-11-28T09:31:31.347Z,7.48
2017-11-28T09:32:31.375Z,7.45
2017-11-28T09:33:31.405Z,7.40
2017-11-28T09:34:31.432Z,7.43
2017-11-28T09:35:31.518Z,7.45
2017-11-28T09:36:31.489Z,7.43
2017-11-28T09:37:31.517Z,7.45
2017-11-28T09:38:31.547Z,7.50
2017-11-28T09:39:31.576Z,7.52
2017-11-28T09:40:31.604Z,7.50
2017-11-28T09:41:31.634Z,7.46
2017-11-28T09:42:31.664Z,7.31
2017-11-28T09:43:31.759Z,7.39
2017-11-28T09:44:31.719Z,7.45
2017-11-28T09:45:31.749Z,7.45
2017-11-28T09:46:31.778Z,7.27
2017-11-28T09:47:31.806Z,7.31
2017-11-28T09:48:31.834Z,7.31
2017-11-28T09:49:31.863Z,7.35
2017-11-28T09:50:31.895Z,7.34
2017-11-28T09:51:31.949Z,7.39
2017-11-28T09:52:31.949Z,7.46
2017-11-28T09:53:31.993Z,7.40
2017-11-28T09:54:32.012Z,7.46
2017-11-28T09:55:32.039Z,7.39
2017-11-28T09:56:32.064Z,7.46
2017-11-28T09:57:32.093Z,7.49
2017-11-28T09:58:32.123Z,7.50
2017-11-28T09:59:32.154Z,7.60
2017-11-28T10:00:32.178Z,7.72
2017-11-28T10:01:32.227Z,7.67
2017-11-28T10:02:32.236Z,7.64
2017-11-28T10:03:32.266Z,7.67
2017-11-28T10:04:32.295Z,7.63
2017-11-28T10:05:32.322Z,7.61
2017-11-28T10:06:32.350Z,7.68
2017-11-28T10:07:32.380Z,7.67
2017-11-28T10:08:32.408Z,7.60
2017-11-28T10:09:32.437Z,7.72
2017-11-28T10:10:32.496Z,7.63
2017-11-28T10:11:32.497Z,7.72
2017-11-28T10:12:32.525Z,7.75
2017-11-28T10:13:32.558Z,7.61
2017-11-28T10:14:32.583Z,7.75
2017-11-28T10:15:32.612Z,7.75
2017-11-28T10:16:32.638Z,7.68
2017-11-28T10:17:32.676Z,7.68
2017-11-28T10:18:32.699Z,7.79
2017-11-28T10:19:32.726Z,7.69
2017-11-28T10:20:32.772Z,7.71
2017-11-28T10:21:32.786Z,7.77
2017-11-28T10:22:32.816Z,7.77
2017-11-28T10:23:32.855Z,7.75
2017-11-28T10:24:32.872Z,7.57
2017-11-28T10:25:32.900Z,7.49
2017-11-28T10:26:32.930Z,7.48
2017-11-28T10:27:32.958Z,7.58
2017-11-28T10:28:32.986Z,7.55
2017-11-28T10:29:33.016Z,7.58
2017-11-28T10:30:33.046Z,7.67
2017-11-28T10:31:33.075Z,7.63
2017-11-28T10:32:33.104Z,7.57
2017-11-28T10:33:33.132Z,7.57
2017-11-28T10:34:33.161Z,7.52
2017-11-28T10:35:33.190Z,7.48
2017-11-28T10:36:33.219Z,7.52
2017-11-28T10:37:33.247Z,7.45
2017-11-28T10:38:33.277Z,7.50
2017-11-28T10:39:33.307Z,7.52
2017-11-28T10:40:33.336Z,7.60
2017-11-28T10:41:33.366Z,7.60
2017-11-28T10:42:33.392Z,7.64
2017-11-28T10:43:33.423Z,7.60
2017-11-28T10:44:33.470Z,7.67
2017-11-28T10:45:33.481Z,7.72
2017-11-28T10:46:33.508Z,7.64
2017-11-28T10:47:33.539Z,7.64
2017-11-28T10:48:33.567Z,7.63
2017-11-28T10:49:33.596Z,7.74
2017-11-28T10:50:33.636Z,7.68
2017-11-28T10:51:33.654Z,7.61
2017-11-28T10:52:33.684Z,7.69
2017-11-28T10:53:33.716Z,7.83
2017-11-28T10:54:33.741Z,7.67
2017-11-28T10:55:33.770Z,7.71
2017-11-28T10:56:33.808Z,7.68
2017-11-28T10:57:33.828Z,7.64
2017-11-28T10:58:33.858Z,7.64
2017-11-28T10:59:33.887Z,7.80
2017-11-28T11:00:33.918Z,7.69
2017-11-28T11:01:33.944Z,7.74
2017-11-28T11:02:33.975Z,7.71
2017-11-28T11:03:34.002Z,7.82
2017-11-28T11:04:34.030Z,7.79
2017-11-28T11:05:34.059Z,7.79
2017-11-28T11:06:34.088Z,7.63
2017-11-28T11:07:34.118Z,7.74
2017-11-28T11:08:34.147Z,7.71
2017-11-28T11:09:34.176Z,7.60
2017-11-28T11:10:34.205Z,7.69
2017-11-28T11:11:34.235Z,7.55
2017-11-28T11:12:34.261Z,7.64
2017-11-28T11:13:34.292Z,7.67
2017-11-28T11:14:34.323Z,7.64
2017-11-28T11:15:34.349Z,7.61
2017-11-28T11:16:34.409Z,7.57
2017-11-28T11:17:34.408Z,7.53
2017-11-28T11:18:34.438Z,7.49
2017-11-28T11:19:34.467Z,7.40
2017-11-28T11:20:34.494Z,7.43
2017-11-28T11:21:34.526Z,7.37
2017-11-28T11:22:34.553Z,7.39
2017-11-28T11:23:34.582Z,7.45
2017-11-28T11:24:34.646Z,7.34
2017-11-28T11:25:34.642Z,7.35
2017-11-28T11:26:34.671Z,7.43
2017-11-28T11:27:34.701Z,7.28
2017-11-28T11:28:34.727Z,7.35
2017-11-28T11:29:34.758Z,7.37
2017-11-28T11:30:34.787Z,7.46
2017-11-28T11:31:34.815Z,7.46
2017-11-28T11:32:34.845Z,7.49
2017-11-28T11:33:34.874Z,7.48
2017-11-28T11:34:34.902Z,7.48
2017-11-28T11:35:34.931Z,7.49
2017-11-28T11:36:34.961Z,7.48
2017-11-28T11:37:34.989Z,7.39
2017-11-28T11:38:35.017Z,7.40
2017-11-28T11:39:35.049Z,7.34
2017-11-28T11:40:35.077Z,7.42
2017-11-28T11:41:35.105Z,7.32
2017-11-28T11:42:35.137Z,7.30
2017-11-28T11:43:35.164Z,7.16
2017-11-28T11:44:35.192Z,7.23
2017-11-28T11:45:35.221Z,7.16
2017-11-28T11:46:35.250Z,7.23
2017-11-28T11:47:35.279Z,7.12
2017-11-28T11:48:35.309Z,7.20
2017-11-28T11:49:35.339Z,7.39
2017-11-28T11:50:35.367Z,7.27
2017-11-28T11:51:35.397Z,7.24
2017-11-28T11:52:35.425Z,7.24
2017-11-28T11:53:35.453Z,7.23
2017-11-28T11:54:35.482Z,7.31
2017-11-28T11:55:35.512Z,7.30
2017-11-28T11:56:35.542Z,7.30
2017-11-28T11:57:35.571Z,7.17
2017-11-28T11:58:35.600Z,7.21
2017-11-28T11:59:35.629Z,7.13
2017-11-28T12:00:35.658Z,7.13
2017-11-28T12:01:35.686Z,7.09
2017-11-28T12:02:35.723Z,7.13
2017-11-28T12:03:35.744Z,7.16
2017-11-28T12:04:35.773Z,7.21
2017-11-28T12:05:35.802Z,7.24
2017-11-28T12:06:35.829Z,7.13
2017-11-28T12:07:35.861Z,7.16
2017-11-28T12:08:35.888Z,7.07
2017-11-28T12:09:35.917Z,7.05
2017-11-28T12:10:35.947Z,7.02
2017-11-28T12:11:35.977Z,7.06
2017-11-28T12:12:36.004Z,7.09
2017-11-28T12:13:36.032Z,7.10
2017-11-28T12:14:36.062Z,7.12
2017-11-28T12:15:36.092Z,7.07
2017-11-28T12:16:36.119Z,7.07
2017-11-28T12:17:36.151Z,7.03
2017-11-28T12:18:36.177Z,6.95
2017-11-28T12:19:36.215Z,6.87
2017-11-28T12:20:36.235Z,6.74
2017-11-28T12:21:36.265Z,6.76
2017-11-28T12:22:36.295Z,6.74
2017-11-28T12:23:36.323Z,6.69
2017-11-28T12:24:36.352Z,6.70
2017-11-28T12:25:36.381Z,6.73
2017-11-28T12:26:36.411Z,6.74
2017-11-28T12:27:36.440Z,6.80
2017-11-28T12:28:36.470Z,6.81
2017-11-28T12:29:36.497Z,6.81
2017-11-28T12:30:36.526Z,6.87
2017-11-28T12:31:36.555Z,6.92
2017-11-28T12:32:36.591Z,6.95
2017-11-28T12:33:36.612Z,6.85
2017-11-28T12:34:36.641Z,6.98
2017-11-28T12:35:36.671Z,6.97
2017-11-28T12:36:36.701Z,7.02
2017-11-28T12:37:36.729Z,7.05
2017-11-28T12:38:36.758Z,7.06
2017-11-28T12:39:36.788Z,7.09
2017-11-28T12:40:36.816Z,7.06
2017-11-28T12:41:36.845Z,7.02
2017-11-28T12:42:36.875Z,7.13
2017-11-28T12:43:36.902Z,7.07
2017-11-28T12:44:36.932Z,7.09
2017-11-28T12:45:36.962Z,7.03
2017-11-28T12:46:36.990Z,7.02
2017-11-28T12:47:37.019Z,7.15
2017-11-28T12:48:37.048Z,7.13
2017-11-28T12:49:37.076Z,7.21
2017-11-28T12:50:37.106Z,7.15
2017-11-28T12:51:37.135Z,7.13
2017-11-28T12:52:37.162Z,7.21
2017-11-28T12:53:37.193Z,7.20
2017-11-28T12:54:37.225Z,7.06
2017-11-28T12:55:37.252Z,7.17
2017-11-28T12:56:37.279Z,7.09
2017-11-28T12:57:37.310Z,7.07
2017-11-28T12:58:37.339Z,7.20
2017-11-28T12:59:37.374Z,6.94
2017-11-28T13:00:37.397Z,6.92
2017-11-28T13:01:37.430Z,6.91
2017-11-28T13:02:37.455Z,7.03
2017-11-28T13:03:37.486Z,7.03
2017-11-28T13:04:37.519Z,7.03
2017-11-28T13:05:37.540Z,6.99
2017-11-28T13:06:37.571Z,7.09
2017-11-28T13:07:37.600Z,7.07
2017-11-28T13:08:37.627Z,7.12
2017-11-28T13:09:37.657Z,7.07
2017-11-28T13:10:37.686Z,7.09
2017-11-28T13:11:37.717Z,6.95
2017-11-28T13:12:37.743Z,6.92
2017-11-28T13:13:37.779Z,6.98
2017-11-28T13:14:37.802Z,7.02
2017-11-28T13:15:37.836Z,6.92
2017-11-28T13:16:37.860Z,6.94
2017-11-28T13:17:37.890Z,7.05
2017-11-28T13:18:37.933Z,6.98